createdAt,value
2019-03-24T00:02:03.349Z,3.55
2019-03-24T00:07:58.382Z,3.19
2019-03-24T00:13:53.349Z,3.63
2019-03-24T00:19:48.356Z,3.41
2019-03-24T00:25:43.348Z,4.28
2019-03-24T00:31:38.374Z,3.61
2019-03-24T00:37:33.363Z,5.4
2019-03-24T00:43:28.403Z,3.41
2019-03-24T00:49:23.423Z,3.45
2019-03-24T00:55:18.392Z,3.03
2019-03-24T01:01:13.420Z,3.2
2019-03-24T01:07:08.373Z,2.75
2019-03-24T01:13:03.401Z,3.15
2019-03-24T01:18:58.385Z,3.05
2019-03-24T01:24:53.395Z,2.92
2019-03-24T01:30:48.387Z,3.19
2019-03-24T01:36:43.393Z,3.41
2019-03-24T01:42:38.411Z,3
2019-03-24T01:48:33.412Z,2.93
2019-03-24T01:54:28.425Z,2.71
2019-03-24T02:00:23.438Z,3.03
2019-03-24T02:06:18.435Z,3.58
2019-03-24T02:12:13.430Z,2.99
2019-03-24T02:18:08.414Z,3.15
2019-03-24T02:24:03.475Z,3.11
2019-03-24T02:29:58.433Z,3.28
2019-03-24T02:35:53.448Z,3.17
2019-03-24T02:41:48.435Z,3.18
2019-03-24T02:47:43.481Z,3.02
2019-03-24T02:53:38.471Z,3.63
2019-03-24T02:59:33.442Z,3.39
2019-03-24T03:05:28.452Z,3.06
2019-03-24T03:11:23.492Z,3.65
2019-03-24T03:17:18.464Z,4.23
2019-03-24T03:23:13.449Z,7.41
2019-03-24T03:29:08.450Z,5.46
2019-03-24T03:35:03.482Z,5.37
2019-03-24T03:40:58.497Z,5.37
2019-03-24T03:46:53.548Z,4.26
2019-03-24T03:52:48.455Z,4.96
2019-03-24T03:58:43.518Z,3.57
2019-03-24T04:04:38.524Z,3.17
2019-03-24T04:10:33.485Z,3.05
2019-03-24T04:16:28.486Z,2.83
2019-03-24T04:22:23.496Z,3.27
2019-03-24T04:28:18.503Z,3.03
2019-03-24T04:34:13.507Z,2.69
2019-03-24T04:40:08.498Z,3.28
2019-03-24T04:46:03.508Z,3.55
2019-03-24T04:51:58.514Z,3.23
2019-03-24T04:57:53.513Z,2.92
2019-03-24T05:03:48.531Z,2.49
2019-03-24T05:09:43.532Z,2.92
2019-03-24T05:15:38.518Z,2.87
2019-03-24T05:21:33.528Z,3.43
2019-03-24T05:27:28.538Z,4.26
2019-03-24T05:33:23.520Z,7.58
2019-03-24T05:39:18.515Z,6.83
2019-03-24T05:45:13.572Z,6.3
2019-03-24T05:51:08.551Z,6.61
2019-03-24T05:57:03.554Z,7.12
2019-03-24T06:02:58.549Z,5.92
2019-03-24T06:08:53.534Z,5.74
2019-03-24T06:14:48.571Z,6.04
2019-03-24T06:20:43.538Z,5.19
2019-03-24T06:26:38.564Z,6.73
2019-03-24T06:32:33.557Z,7.84
2019-03-24T06:38:28.580Z,8.93
2019-03-24T06:44:23.563Z,9.83
2019-03-24T06:50:18.561Z,9.54
2019-03-24T06:56:13.582Z,9.67
2019-03-24T07:02:08.620Z,8.83
2019-03-24T07:08:03.571Z,9.81
2019-03-24T07:13:58.602Z,9.72
2019-03-24T07:19:53.577Z,10.27
2019-03-24T07:25:48.614Z,9.59
2019-03-24T07:31:43.589Z,8.88
2019-03-24T07:37:38.594Z,9.99
2019-03-24T07:43:33.609Z,9.34
2019-03-24T07:49:28.655Z,9.51
2019-03-24T07:55:23.586Z,9.98
2019-03-24T08:01:18.627Z,11.29
2019-03-24T08:07:13.607Z,10.22
2019-03-24T08:13:08.638Z,10.54
2019-03-24T08:19:03.656Z,9.77
2019-03-24T08:24:58.616Z,9.2
2019-03-24T08:30:53.615Z,9.23
2019-03-24T08:36:48.623Z,9.65
2019-03-24T08:42:43.660Z,9.01
2019-03-24T08:48:40.996Z,10.01
2019-03-24T08:54:33.627Z,10.27
2019-03-24T09:00:30.752Z,10.99
2019-03-24T09:06:23.652Z,10.46
2019-03-24T09:12:18.668Z,9.39
2019-03-24T09:18:13.641Z,9.86
2019-03-24T09:24:08.699Z,8.5
2019-03-24T09:30:03.655Z,8.2
2019-03-24T09:35:58.670Z,6.78
2019-03-24T09:41:53.698Z,6.08
2019-03-24T09:47:48.664Z,6.07
2019-03-24T09:53:43.665Z,5.47
2019-03-24T09:59:38.670Z,5.24
2019-03-24T10:05:33.692Z,5
2019-03-24T10:11:28.697Z,3.88
2019-03-24T10:17:23.695Z,4.4
2019-03-24T10:23:18.699Z,3.92
2019-03-24T10:29:13.711Z,9.9
2019-03-24T10:35:08.682Z,5.76
2019-03-24T10:41:03.753Z,9.58
2019-03-24T10:46:58.686Z,6.56
2019-03-24T10:52:53.707Z,9.4
2019-03-24T10:58:48.701Z,4.74
2019-03-24T11:04:43.687Z,3.66
2019-03-24T11:10:38.704Z,3.83
2019-03-24T11:16:33.718Z,3.59
2019-03-24T11:22:28.714Z,4.25
2019-03-24T11:28:23.731Z,3.76
2019-03-24T11:34:18.738Z,4.4
2019-03-24T11:40:13.714Z,4.22
2019-03-24T11:46:08.723Z,3.72
2019-03-24T11:52:03.740Z,4.67
2019-03-24T11:58:05.528Z,4.86
2019-03-24T12:03:53.725Z,4.38
2019-03-24T12:09:48.766Z,3.98
2019-03-24T12:15:43.733Z,4.5
2019-03-24T12:21:38.756Z,3.51
2019-03-24T12:27:33.770Z,4.32
2019-03-24T12:33:28.747Z,3.63
2019-03-24T12:39:23.759Z,3.8
2019-03-24T12:45:18.775Z,4.26
2019-03-24T12:51:13.774Z,3.55
2019-03-24T12:57:08.793Z,3.5
2019-03-24T13:03:03.807Z,3.1
2019-03-24T13:08:58.779Z,3.75
2019-03-24T13:14:53.801Z,3.71
2019-03-24T13:20:48.785Z,3.38
2019-03-24T13:26:43.801Z,4.23
2019-03-24T13:32:38.789Z,4.05
2019-03-24T13:38:33.798Z,3.29
2019-03-24T13:44:28.800Z,3.62
2019-03-24T13:50:31.225Z,3.52
2019-03-24T13:56:18.813Z,2.75
2019-03-24T14:02:13.784Z,3.27
2019-03-24T14:08:08.833Z,3.8
2019-03-24T14:14:03.814Z,3.36
2019-03-24T14:19:58.900Z,3.68
2019-03-24T14:25:53.814Z,4.16
2019-03-24T14:31:48.833Z,3.98
2019-03-24T14:37:43.844Z,3.51
2019-03-24T14:43:38.823Z,3.44
2019-03-24T14:49:33.887Z,3.97
2019-03-24T14:55:28.823Z,3.48
2019-03-24T15:01:23.827Z,3.49
2019-03-24T15:07:18.869Z,3.25
2019-03-24T15:13:13.842Z,3.06
2019-03-24T15:19:08.862Z,4.12
2019-03-24T15:25:03.892Z,3.9
2019-03-24T15:30:58.827Z,4.49
2019-03-24T15:36:53.849Z,3.51
2019-03-24T15:42:48.841Z,4.33
2019-03-24T15:48:43.879Z,3.4
2019-03-24T15:54:38.871Z,3.2
2019-03-24T16:00:33.858Z,2.93
2019-03-24T16:06:28.862Z,3.29
2019-03-24T16:12:23.939Z,6.04
2019-03-24T16:18:18.873Z,4.81
2019-03-24T16:24:13.874Z,3.75
2019-03-24T16:30:08.910Z,5.16
2019-03-24T16:36:03.890Z,4.31
2019-03-24T16:41:58.918Z,6.62
2019-03-24T16:47:53.885Z,5.28
2019-03-24T16:53:48.907Z,5.06
2019-03-24T16:59:43.931Z,4.88
2019-03-24T17:05:38.903Z,4.19
2019-03-24T17:11:33.934Z,5.11
2019-03-24T17:17:28.933Z,3.79
2019-03-24T17:23:23.957Z,9.47
2019-03-24T17:29:18.940Z,9.1
2019-03-24T17:35:13.969Z,17.07
2019-03-24T17:41:08.951Z,11.46
2019-03-24T17:47:03.937Z,5.73
2019-03-24T17:52:58.949Z,6.4
2019-03-24T17:58:53.940Z,9.89
2019-03-24T18:04:48.929Z,5.65
2019-03-24T18:10:43.956Z,5.25
2019-03-24T18:16:38.957Z,16.42
2019-03-24T18:22:33.925Z,10.4
2019-03-24T18:28:28.970Z,7.84
2019-03-24T18:34:23.962Z,7.67
2019-03-24T18:40:18.985Z,9.4
2019-03-24T18:46:13.975Z,6.21
2019-03-24T18:52:08.978Z,5.07
2019-03-24T18:58:03.973Z,5.12
2019-03-24T19:03:58.975Z,5.81
2019-03-24T19:09:53.978Z,3.97
2019-03-24T19:15:48.967Z,3.14
2019-03-24T19:21:43.977Z,4.22
2019-03-24T19:27:39.009Z,11.64
2019-03-24T19:33:33.996Z,9.49
2019-03-24T19:39:29.008Z,5.81
2019-03-24T19:45:24.004Z,8.68
2019-03-24T19:51:19.012Z,7.2
2019-03-24T19:57:14.057Z,7.97
2019-03-24T20:03:09.021Z,8.37
2019-03-24T20:09:04.004Z,7.57
2019-03-24T20:14:59.040Z,6.87
2019-03-24T20:20:54.062Z,7.95
2019-03-24T20:26:49.023Z,8.34
2019-03-24T20:32:44.068Z,12.75
2019-03-24T20:38:39.051Z,17.6
2019-03-24T20:44:34.061Z,21.72
2019-03-24T20:50:29.067Z,11.85
2019-03-24T20:56:24.029Z,11.08
2019-03-24T21:02:19.063Z,8.43
2019-03-24T21:08:14.034Z,10.16
2019-03-24T21:14:09.032Z,9.56
2019-03-24T21:20:04.065Z,9.51
2019-03-24T21:25:59.084Z,9.67
2019-03-24T21:31:55.180Z,9.89
2019-03-24T21:37:49.080Z,11.27
2019-03-24T21:43:44.070Z,12.34
2019-03-24T21:49:39.070Z,12.75
2019-03-24T21:55:34.131Z,10.84
2019-03-24T22:01:29.085Z,11.47
2019-03-24T22:07:24.083Z,10.94
2019-03-24T22:13:19.060Z,10.54
2019-03-24T22:19:14.086Z,10.73
2019-03-24T22:25:09.087Z,10.63
2019-03-24T22:31:04.120Z,13.35
2019-03-24T22:36:59.163Z,15.1
2019-03-24T22:42:54.124Z,14
2019-03-24T22:48:49.106Z,11.89
2019-03-24T22:54:44.105Z,12.14
2019-03-24T23:00:39.123Z,10.67
2019-03-24T23:06:34.106Z,10.46
2019-03-24T23:12:29.132Z,11.47
2019-03-24T23:18:24.113Z,11.75
2019-03-24T23:24:19.104Z,11.75
2019-03-24T23:30:14.141Z,12.62
2019-03-24T23:36:09.122Z,12.17
2019-03-24T23:42:04.120Z,12.45
2019-03-24T23:47:59.120Z,14.36
2019-03-24T23:53:54.142Z,14.47
2019-03-24T23:59:49.149Z,12.62
